Time;durP1;ratioP1;P1;durP2;ratioP2;P2;SDS_P1;SDS_P2;PMS_P1;PMS_P2;Temp;Humidity;BMP_temperature;BMP_pressure;BME280_temperature;BME280_humidity;BME280_pressure;Samples;Min_cycle;Max_cycle;Signal;HPM_P1;HPM_P2
2024/02/06 00:00:09;;;;;;;15.43;5.35;;;;;;;7.74;100.00;100733.53;5010402;28;20542;-73
2024/02/06 00:02:38;;;;;;;16.75;6.25;;;;;;;7.74;100.00;100737.03;4984255;28;20049;-72
2024/02/06 00:05:07;;;;;;;14.32;6.10;;;;;;;7.66;100.00;100720.59;5005246;28;20601;-73
2024/02/06 00:07:40;;;;;;;14.13;5.93;;;;;;;7.68;100.00;100724.06;4994753;28;20128;-71
2024/02/06 00:10:11;;;;;;;20.10;6.13;;;;;;;7.69;100.00;100731.06;5008939;28;20573;-70
2024/02/06 00:12:40;;;;;;;20.52;6.13;;;;;;;7.74;100.00;100728.28;5012835;28;20116;-70
2024/02/06 00:15:09;;;;;;;18.70;6.68;;;;;;;7.80;100.00;100727.22;4992608;28;20045;-69
2024/02/06 00:17:37;;;;;;;20.45;6.22;;;;;;;7.81;100.00;100714.00;5005141;28;20136;-69
2024/02/06 00:20:07;;;;;;;15.73;5.68;;;;;;;7.85;100.00;100715.66;5020138;28;20049;-70
2024/02/06 00:22:35;;;;;;;16.25;6.07;;;;;;;7.82;100.00;100713.09;5001613;28;20060;-71
2024/02/06 00:25:05;;;;;;;18.02;6.32;;;;;;;7.75;100.00;100704.50;5019869;28;20207;-70
2024/02/06 00:27:35;;;;;;;14.98;6.22;;;;;;;7.70;100.00;100693.25;5011131;28;20044;-72
2024/02/06 00:30:03;;;;;;;16.30;6.03;;;;;;;7.78;100.00;100693.00;5000505;28;20185;-70
2024/02/06 00:32:34;;;;;;;18.55;6.30;;;;;;;7.84;100.00;100692.81;5005839;28;20042;-72
2024/02/06 00:35:03;;;;;;;18.02;6.28;;;;;;;7.84;100.00;100694.59;5012722;28;20049;-71
2024/02/06 00:37:34;;;;;;;21.67;7.18;;;;;;;7.78;100.00;100686.88;5015372;28;20045;-70
2024/02/06 00:40:02;;;;;;;18.30;6.68;;;;;;;7.77;100.00;100683.38;5028158;28;20049;-70
2024/02/06 00:42:31;;;;;;;18.25;6.40;;;;;;;7.79;100.00;100692.09;5002111;28;20045;-72
2024/02/06 00:45:02;;;;;;;19.23;6.38;;;;;;;7.73;100.00;100679.09;4991426;28;20073;-71
2024/02/06 00:47:31;;;;;;;19.00;7.00;;;;;;;7.73;100.00;100673.81;4992885;28;20033;-71
2024/02/06 00:50:01;;;;;;;17.10;6.10;;;;;;;7.74;100.00;100694.88;5009656;28;20053;-72
2024/02/06 00:52:30;;;;;;;17.38;6.75;;;;;;;7.72;100.00;100687.91;5021344;28;20188;-70
2024/02/06 00:55:00;;;;;;;20.92;6.40;;;;;;;7.75;100.00;100690.44;4995435;28;20052;-70
2024/02/06 00:57:29;;;;;;;14.90;6.55;;;;;;;7.76;100.00;100689.53;4998101;28;20077;-69
2024/02/06 00:59:56;;;;;;;15.95;6.18;;;;;;;7.80;100.00;100687.69;5027224;28;20049;-70
2024/02/06 01:02:29;;;;;;;21.23;7.18;;;;;;;7.71;100.00;100680.94;5021565;28;20068;-70
2024/02/06 01:05:00;;;;;;;20.58;7.18;;;;;;;7.74;100.00;100684.31;5011800;28;20045;-71
2024/02/06 01:07:30;;;;;;;21.73;7.15;;;;;;;7.78;100.00;100673.69;5018510;28;20050;-71
2024/02/06 01:10:00;;;;;;;19.75;6.80;;;;;;;7.86;100.00;100688.38;5034975;28;20109;-72
2024/02/06 01:12:28;;;;;;;20.85;6.90;;;;;;;7.89;100.00;100682.13;5007370;28;20050;-72
2024/02/06 01:14:59;;;;;;;19.08;6.95;;;;;;;7.83;100.00;100672.66;5014250;28;20049;-69
2024/02/06 01:17:29;;;;;;;19.00;6.97;;;;;;;7.86;100.00;100680.47;5044851;28;20581;-70
2024/02/06 01:19:57;;;;;;;20.77;7.28;;;;;;;7.90;100.00;100674.16;5011061;28;20100;-69
2024/02/06 01:22:27;;;;;;;21.38;7.10;;;;;;;7.87;100.00;100665.50;5022128;28;20041;-71
2024/02/06 01:24:56;;;;;;;22.15;7.72;;;;;;;7.80;100.00;100666.59;5010466;28;20073;-70
2024/02/06 01:27:25;;;;;;;18.17;7.07;;;;;;;7.86;100.00;100669.06;5016034;28;20100;-69
2024/02/06 01:29:53;;;;;;;19.50;6.90;;;;;;;7.90;100.00;100668.03;5029092;28;20163;-71
2024/02/06 01:32:21;;;;;;;20.60;8.02;;;;;;;7.82;100.00;100654.22;4989921;28;20049;-70
2024/02/06 01:34:53;;;;;;;21.07;6.63;;;;;;;7.80;100.00;100667.47;5021739;28;20068;-70
2024/02/06 01:37:21;;;;;;;22.10;7.13;;;;;;;7.77;100.00;100669.31;4995643;28;20474;-70
2024/02/06 01:39:51;;;;;;;19.38;7.22;;;;;;;7.75;100.00;100658.81;5027947;28;20037;-71
2024/02/06 01:42:22;;;;;;;18.05;6.95;;;;;;;7.84;100.00;100661.19;5010065;28;20104;-72
2024/02/06 01:44:53;;;;;;;17.88;6.57;;;;;;;7.90;100.00;100655.69;5007207;28;20076;-70
2024/02/06 01:47:22;;;;;;;;;;;;;;;7.95;100.00;100655.56;5034280;28;20041;-70
2024/02/06 01:49:52;;;;;;;15.05;6.93;;;;;;;7.78;100.00;100640.28;5019939;28;19948;-70
2024/02/06 01:52:21;;;;;;;25.23;7.18;;;;;;;7.77;100.00;100650.88;5028312;28;20048;-71
2024/02/06 01:54:50;;;;;;;13.88;6.63;;;;;;;7.70;100.00;100639.66;5026019;28;20045;-69
2024/02/06 01:57:20;;;;;;;;;;;;;;;7.73;100.00;100652.72;5007775;28;20046;-72
2024/02/06 01:59:51;;;;;;;25.00;6.38;;;;;;;7.67;100.00;100653.81;5029978;28;20000;-70
2024/02/06 02:02:22;;;;;;;18.30;6.70;;;;;;;7.67;100.00;100645.03;5029852;28;20061;-70
2024/02/06 02:04:54;;;;;;;16.02;7.45;;;;;;;7.69;100.00;100645.84;4993571;28;20052;-70
2024/02/06 02:07:25;;;;;;;14.82;6.43;;;;;;;7.66;100.00;100646.81;4999625;28;20055;-70
2024/02/06 02:09:54;;;;;;;;;;;;;;;7.71;100.00;100657.22;5015994;28;20065;-70
2024/02/06 02:12:23;;;;;;;18.88;7.00;;;;;;;7.71;100.00;100644.03;5024924;28;20247;-70
2024/02/06 02:14:51;;;;;;;17.55;6.40;;;;;;;7.68;100.00;100637.09;5011011;28;20033;-70
2024/02/06 02:17:19;;;;;;;19.90;6.55;;;;;;;7.65;100.00;100644.22;5010665;28;20053;-71
2024/02/06 02:19:47;;;;;;;20.35;6.75;;;;;;;7.57;100.00;100648.84;5031882;28;20092;-71
2024/02/06 02:22:19;;;;;;;15.68;6.65;;;;;;;7.51;100.00;100643.78;5032715;28;20601;-72
2024/02/06 02:24:50;;;;;;;13.95;6.53;;;;;;;7.49;100.00;100637.69;5002164;28;20042;-71
2024/02/06 02:27:20;;;;;;;14.20;6.05;;;;;;;7.53;100.00;100639.31;4991501;28;20140;-71
2024/02/06 02:29:54;;;;;;;16.80;6.43;;;;;;;7.56;100.00;100628.66;4962276;28;20498;-69
2024/02/06 02:32:23;;;;;;;19.38;6.20;;;;;;;7.55;100.00;100625.19;5003101;28;20045;-71
2024/02/06 02:34:52;;;;;;;15.35;5.78;;;;;;;7.48;100.00;100631.56;4982149;28;20038;-70
2024/02/06 02:37:23;;;;;;;14.85;5.95;;;;;;;7.45;100.00;100629.00;5008962;28;20422;-72
2024/02/06 02:39:52;;;;;;;14.60;5.85;;;;;;;7.44;100.00;100624.66;5010186;28;20045;-72
2024/02/06 02:42:20;;;;;;;15.43;6.05;;;;;;;7.43;100.00;100609.75;5006853;28;20069;-73
2024/02/06 02:44:48;;;;;;;12.13;5.13;;;;;;;7.48;100.00;100617.50;5003126;28;20666;-70
2024/02/06 02:47:16;;;;;;;15.27;5.45;;;;;;;7.48;100.00;100615.75;4991927;28;20040;-74
2024/02/06 02:49:44;;;;;;;14.32;5.45;;;;;;;7.46;100.00;100611.44;4989546;28;20439;-71
2024/02/06 02:52:14;;;;;;;14.70;5.50;;;;;;;7.38;100.00;100612.53;4984921;28;20073;-72
2024/02/06 02:54:48;;;;;;;13.30;5.38;;;;;;;7.35;100.00;100611.75;4984144;28;20453;-72
2024/02/06 02:57:15;;;;;;;;;;;;;;;7.39;100.00;100614.28;4990570;28;20038;-72
2024/02/06 02:59:43;;;;;;;17.52;5.18;;;;;;;7.40;100.00;100609.84;4992398;28;19926;-70
2024/02/06 03:02:13;;;;;;;13.32;5.40;;;;;;;7.33;100.00;100609.16;5004895;28;20075;-72
2024/02/06 03:04:44;;;;;;;13.95;5.55;;;;;;;7.39;100.00;100605.50;4999079;28;20101;-71
2024/02/06 03:07:13;;;;;;;16.30;5.40;;;;;;;7.38;100.00;100598.50;4991991;28;20050;-73
2024/02/06 03:09:42;;;;;;;14.18;5.60;;;;;;;7.38;100.00;100602.00;5008650;28;20422;-72
2024/02/06 03:12:13;;;;;;;;;;;;;;;7.27;100.00;100611.97;5001187;28;20049;-72
2024/02/06 03:14:44;;;;;;;14.50;5.32;;;;;;;7.16;100.00;100607.94;4999593;28;19934;-71
2024/02/06 03:17:15;;;;;;;15.82;5.88;;;;;;;7.06;100.00;100604.72;5000515;28;20153;-72
2024/02/06 03:19:43;;;;;;;15.25;5.72;;;;;;;7.02;100.00;100603.94;5004776;28;20049;-70
2024/02/06 03:22:13;;;;;;;12.85;4.72;;;;;;;7.06;100.00;100590.72;4963807;28;20070;-70
2024/02/06 03:24:41;;;;;;;16.20;4.50;;;;;;;7.04;100.00;100588.13;5013821;28;20045;-70
2024/02/06 03:27:09;;;;;;;12.90;4.78;;;;;;;7.16;100.00;100594.78;5036066;28;20148;-69
2024/02/06 03:29:46;;;;;;;13.88;5.32;;;;;;;7.18;100.00;100592.97;5021956;28;20069;-69
2024/02/06 03:32:14;;;;;;;13.68;5.18;;;;;;;7.09;100.00;100591.44;5031210;28;20049;-71
2024/02/06 03:34:42;;;;;;;15.45;4.72;;;;;;;7.03;100.00;100599.56;5035959;28;20172;-71
2024/02/06 03:37:12;;;;;;;10.20;3.90;;;;;;;6.98;100.00;100590.91;5026013;28;20065;-69
2024/02/06 03:39:41;;;;;;;9.20;4.07;;;;;;;6.96;100.00;100595.34;5033504;28;20042;-70
2024/02/06 03:42:12;;;;;;;12.52;4.15;;;;;;;7.00;100.00;100597.00;5037375;28;20056;-70
2024/02/06 03:44:42;;;;;;;8.18;3.90;;;;;;;6.96;100.00;100571.66;5025834;28;20129;-71
2024/02/06 03:47:10;;;;;;;8.40;3.80;;;;;;;7.12;100.00;100583.47;5037774;28;20478;-68
2024/02/06 03:49:40;;;;;;;8.02;3.30;;;;;;;7.10;100.00;100584.41;5037382;28;20050;-70
2024/02/06 03:52:10;;;;;;;10.52;3.95;;;;;;;6.99;100.00;100582.09;5025881;28;20049;-71
2024/02/06 03:54:46;;;;;;;9.10;3.33;;;;;;;7.02;100.00;100574.13;5022185;28;20066;-71
2024/02/06 03:57:15;;;;;;;9.50;3.85;;;;;;;7.10;100.00;100580.00;5041643;28;20237;-70
2024/02/06 03:59:49;;;;;;;9.68;3.97;;;;;;;7.11;100.00;100565.06;5035370;28;20444;-72
2024/02/06 04:02:21;;;;;;;9.30;3.47;;;;;;;7.09;100.00;100567.75;5037267;28;20105;-71
2024/02/06 04:04:49;;;;;;;8.73;3.53;;;;;;;7.11;100.00;100570.34;5016778;28;20041;-69
2024/02/06 04:07:18;;;;;;;6.25;3.15;;;;;;;6.98;100.00;100560.19;5024088;28;20045;-71
2024/02/06 04:09:46;;;;;;;7.60;3.20;;;;;;;7.01;100.00;100569.75;5016794;28;20053;-71
2024/02/06 04:12:16;;;;;;;8.68;3.50;;;;;;;7.07;100.00;100579.25;5030615;28;20479;-72
2024/02/06 04:14:46;;;;;;;9.90;3.97;;;;;;;7.06;100.00;100580.16;5028581;28;20053;-72
2024/02/06 04:17:15;;;;;;;9.20;4.10;;;;;;;6.89;100.00;100557.84;5031185;28;20037;-72
2024/02/06 04:19:44;;;;;;;8.07;3.67;;;;;;;7.02;100.00;100574.13;5030770;28;20052;-71
2024/02/06 04:22:12;;;;;;;8.60;3.90;;;;;;;7.01;100.00;100567.13;5003996;28;20049;-70
2024/02/06 04:24:40;;;;;;;7.53;3.58;;;;;;;6.99;100.00;100554.00;5003661;28;20050;-70
2024/02/06 04:27:11;;;;;;;8.65;4.15;;;;;;;7.03;100.00;100563.56;5012305;28;20052;-72
2024/02/06 04:29:42;;;;;;;8.20;4.28;;;;;;;7.06;100.00;100554.69;5027753;28;20151;-69
2024/02/06 04:32:11;;;;;;;13.20;4.32;;;;;;;7.04;100.00;100554.75;4996572;28;20049;-73
2024/02/06 04:34:42;;;;;;;9.95;4.20;;;;;;;7.03;100.00;100558.28;5003809;28;20132;-71
2024/02/06 04:37:13;;;;;;;9.50;5.20;;;;;;;7.06;100.00;100561.75;5027443;28;20053;-73
2024/02/06 04:39:43;;;;;;;12.07;5.57;;;;;;;7.00;100.00;100553.09;5031495;28;20045;-72
2024/02/06 04:42:12;;;;;;;11.82;5.93;;;;;;;7.03;100.00;100560.06;5029022;28;20050;-71
2024/02/06 04:44:40;;;;;;;13.75;6.00;;;;;;;7.13;100.00;100558.00;5013201;28;20079;-68
2024/02/06 04:47:09;;;;;;;12.63;6.13;;;;;;;7.09;100.00;100546.69;5011468;28;20132;-70
2024/02/06 04:49:37;;;;;;;11.57;6.47;;;;;;;7.17;100.00;100539.44;5030591;28;20506;-71
2024/02/06 04:52:10;;;;;;;13.55;6.68;;;;;;;7.12;100.00;100546.59;5009854;28;20046;-69
2024/02/06 04:54:40;;;;;;;11.73;6.65;;;;;;;7.12;100.00;100543.97;5019497;28;20045;-70
2024/02/06 04:57:13;;;;;;;13.93;6.35;;;;;;;7.13;100.00;100540.44;5027023;28;20521;-72
2024/02/06 04:59:42;;;;;;;9.52;5.88;;;;;;;7.08;100.00;100528.31;5012848;28;20049;-72
2024/02/06 05:02:12;;;;;;;13.30;6.70;;;;;;;7.10;100.00;100543.16;5024194;28;20061;-71
2024/02/06 05:04:41;;;;;;;12.85;6.32;;;;;;;7.12;100.00;100540.47;4996371;28;20072;-71
2024/02/06 05:07:14;;;;;;;12.23;6.60;;;;;;;7.11;100.00;100529.06;5006590;28;20042;-71
2024/02/06 05:09:43;;;;;;;9.73;5.93;;;;;;;7.09;100.00;100520.34;5026986;28;20048;-71
2024/02/06 05:12:11;;;;;;;11.23;6.03;;;;;;;7.09;100.00;100516.84;5024240;28;20068;-71
2024/02/06 05:14:40;;;;;;;12.18;6.07;;;;;;;7.04;100.00;100504.72;5015401;28;20057;-69
2024/02/06 05:17:08;;;;;;;13.48;6.35;;;;;;;7.01;100.00;100493.41;5024529;28;20050;-70
2024/02/06 05:19:42;;;;;;;10.70;6.35;;;;;;;7.06;100.00;100502.03;5037671;28;20042;-70
2024/02/06 05:22:13;;;;;;;13.80;6.00;;;;;;;7.03;100.00;100502.13;5037331;28;20053;-71
2024/02/06 05:24:45;;;;;;;10.82;5.57;;;;;;;7.05;100.00;100492.41;5026980;28;20068;-69
2024/02/06 05:27:14;;;;;;;12.40;5.70;;;;;;;7.04;100.00;100491.56;5029036;28;20604;-70
2024/02/06 05:29:45;;;;;;;10.85;5.60;;;;;;;7.12;100.00;100496.56;5043670;28;20079;-68
2024/02/06 05:32:14;;;;;;;15.25;6.13;;;;;;;7.13;100.00;100485.13;5031782;28;20136;-72
2024/02/06 05:34:43;;;;;;;11.30;5.97;;;;;;;7.12;100.00;100488.66;5019262;28;20733;-71
2024/02/06 05:37:13;;;;;;;11.67;5.73;;;;;;;7.17;100.00;100485.91;5033242;28;20042;-71
2024/02/06 05:39:42;;;;;;;10.07;5.80;;;;;;;7.18;100.00;100491.13;5034112;28;20475;-70
2024/02/06 05:42:10;;;;;;;14.57;6.18;;;;;;;7.12;100.00;100486.03;5037729;28;20113;-70
2024/02/06 05:44:38;;;;;;;11.43;5.68;;;;;;;7.03;100.00;100475.81;5030295;28;20057;-70
2024/02/06 05:47:07;;;;;;;12.63;6.00;;;;;;;6.95;100.00;100470.75;5035960;28;20053;-70
2024/02/06 05:49:35;;;;;;;13.48;5.68;;;;;;;7.06;100.00;100486.25;5027999;28;20084;-69
2024/02/06 05:52:04;;;;;;;13.65;6.68;;;;;;;7.01;100.00;100460.03;5034587;28;20049;-71
2024/02/06 05:54:37;;;;;;;10.65;5.68;;;;;;;7.14;100.00;100476.31;5028031;28;20713;-71
2024/02/06 05:57:06;;;;;;;12.32;5.72;;;;;;;7.05;100.00;100466.09;5029926;28;20045;-69
2024/02/06 05:59:34;;;;;;;13.07;5.97;;;;;;;7.03;100.00;100468.75;5025254;28;20053;-72
2024/02/06 06:02:06;;;;;;;13.57;5.45;;;;;;;7.00;100.00;100470.63;5034247;28;20100;-69
2024/02/06 06:04:37;;;;;;;12.35;5.65;;;;;;;6.98;100.00;100465.41;5037243;28;20056;-70
2024/02/06 06:07:08;;;;;;;11.45;5.88;;;;;;;7.01;100.00;100469.72;5035182;28;20052;-72
2024/02/06 06:09:39;;;;;;;11.10;5.72;;;;;;;6.98;100.00;100454.88;5032634;28;20077;-70
2024/02/06 06:12:11;;;;;;;13.05;5.72;;;;;;;7.01;100.00;100464.44;5039280;28;20315;-70
2024/02/06 06:14:39;;;;;;;11.07;5.15;;;;;;;6.96;100.00;100459.31;5026388;28;20053;-70
2024/02/06 06:17:08;;;;;;;12.02;5.75;;;;;;;6.97;100.00;100471.56;5031782;28;20060;-72
2024/02/06 06:19:37;;;;;;;13.73;5.88;;;;;;;7.02;100.00;100460.91;5043015;28;20045;-70
2024/02/06 06:22:08;;;;;;;11.13;5.57;;;;;;;6.91;100.00;100449.88;5033549;28;20054;-68
2024/02/06 06:24:36;;;;;;;17.45;6.03;;;;;;;7.00;100.00;100462.72;5035414;28;20136;-72
2024/02/06 06:27:07;;;;;;;11.18;5.38;;;;;;;7.10;100.00;100468.56;5027847;28;20045;-72
2024/02/06 06:29:36;;;;;;;11.43;5.18;;;;;;;7.03;100.00;100465.28;5037665;28;20053;-70
2024/02/06 06:32:05;;;;;;;10.82;6.10;;;;;;;6.92;100.00;100468.25;5019359;28;20145;-69
2024/02/06 06:34:33;;;;;;;12.10;5.72;;;;;;;6.91;100.00;100468.28;5027192;28;20140;-70
2024/02/06 06:37:00;;;;;;;13.55;6.35;;;;;;;6.89;100.00;100464.84;5034090;28;20128;-71
2024/02/06 06:39:29;;;;;;;12.93;6.50;;;;;;;6.91;100.00;100470.91;5031442;28;20122;-72
2024/02/06 06:41:57;;;;;;;13.35;6.72;;;;;;;6.87;100.00;100471.91;5008863;28;20046;-70
2024/02/06 06:44:28;;;;;;;13.50;5.78;;;;;;;6.87;100.00;100461.38;5014921;28;20041;-71
2024/02/06 06:47:01;;;;;;;12.05;6.10;;;;;;;6.88;100.00;100447.31;5018331;28;20514;-72
2024/02/06 06:49:29;;;;;;;11.90;6.60;;;;;;;6.84;100.00;100456.22;5009787;28;20187;-72
2024/02/06 06:51:59;;;;;;;11.40;6.07;;;;;;;6.84;100.00;100462.34;5019940;28;20057;-69
2024/02/06 06:54:28;;;;;;;16.08;6.78;;;;;;;6.79;100.00;100464.22;5030234;28;20553;-71
2024/02/06 06:56:58;;;;;;;11.55;6.68;;;;;;;6.82;100.00;100444.88;5025757;28;20041;-70
2024/02/06 06:59:29;;;;;;;13.13;6.70;;;;;;;6.75;100.00;100461.78;5032965;28;20054;-69
2024/02/06 07:01:58;;;;;;;13.38;6.68;;;;;;;6.80;100.00;100446.69;5020420;28;20073;-71
2024/02/06 07:04:27;;;;;;;10.02;6.45;;;;;;;6.78;100.00;100436.19;5021299;28;20038;-70
2024/02/06 07:06:55;;;;;;;16.25;7.25;;;;;;;6.73;100.00;100437.25;5026243;28;20073;-70
2024/02/06 07:09:25;;;;;;;12.57;6.25;;;;;;;6.76;100.00;100422.25;5033924;28;20042;-70
2024/02/06 07:11:56;;;;;;;14.10;7.03;;;;;;;6.78;100.00;100432.69;5025084;28;20053;-71
2024/02/06 07:14:24;;;;;;;9.80;6.20;;;;;;;6.77;100.00;100429.19;5026160;28;20041;-70
2024/02/06 07:16:55;;;;;;;12.55;6.68;;;;;;;6.77;100.00;100444.16;5013040;28;20315;-71
2024/02/06 07:19:23;;;;;;;12.88;6.53;;;;;;;6.80;100.00;100451.94;5009884;28;20038;-71
2024/02/06 07:21:55;;;;;;;9.50;6.22;;;;;;;6.76;100.00;100451.19;5022807;28;20054;-71
2024/02/06 07:24:25;;;;;;;13.63;6.07;;;;;;;6.71;100.00;100455.72;5018251;28;20061;-71
2024/02/06 07:26:54;;;;;;;9.35;5.68;;;;;;;6.68;100.00;100455.81;5023575;28;20084;-69
2024/02/06 07:29:24;;;;;;;10.47;5.23;;;;;;;6.65;100.00;100456.75;5024250;28;20041;-70
2024/02/06 07:31:55;;;;;;;12.25;6.15;;;;;;;6.72;100.00;100473.25;5020639;28;21071;-71
2024/02/06 07:34:23;;;;;;;11.93;5.78;;;;;;;6.78;100.00;100465.16;5017921;28;20097;-71
2024/02/06 07:36:53;;;;;;;11.43;5.88;;;;;;;6.81;100.00;100472.09;5005217;28;20065;-72
2024/02/06 07:39:23;;;;;;;13.38;6.20;;;;;;;6.86;100.00;100464.94;5025937;28;22575;-70
2024/02/06 07:41:51;;;;;;;9.80;5.88;;;;;;;6.87;100.00;100467.50;4999582;28;20576;-69
2024/02/06 07:44:19;;;;;;;10.82;6.10;;;;;;;6.90;100.00;100482.34;5024854;28;20041;-70
2024/02/06 07:46:48;;;;;;;12.68;6.45;;;;;;;6.96;100.00;100482.16;5027040;28;20091;-70
2024/02/06 07:49:18;;;;;;;10.57;5.57;;;;;;;6.98;100.00;100475.06;5021592;28;20053;-72
2024/02/06 07:51:46;;;;;;;;;;;;;;;6.98;100.00;100482.97;5020258;28;20054;-75
2024/02/06 07:54:15;;;;;;;13.50;5.78;;;;;;;6.93;100.00;100480.47;5016744;28;19925;-74
2024/02/06 07:56:46;;;;;;;12.75;5.93;;;;;;;6.97;100.00;100489.16;5025549;28;20053;-75
2024/02/06 07:59:16;;;;;;;9.70;5.75;;;;;;;6.94;100.00;100492.72;5026905;28;20409;-75
2024/02/06 08:01:44;;;;;;;10.25;5.65;;;;;;;6.94;100.00;100495.34;5021246;28;20049;-76
2024/02/06 08:04:12;;;;;;;9.85;5.68;;;;;;;6.99;100.00;100500.50;5018552;28;20128;-75
2024/02/06 08:06:41;;;;;;;11.55;5.80;;;;;;;6.95;100.00;100501.47;5022834;28;20051;-74
2024/02/06 08:09:12;;;;;;;12.35;5.80;;;;;;;6.95;100.00;100502.34;5019035;28;20052;-72
2024/02/06 08:11:40;;;;;;;12.70;5.93;;;;;;;6.97;100.00;100500.53;5022622;28;20050;-73
2024/02/06 08:14:13;;;;;;;9.20;5.75;;;;;;;6.92;100.00;100486.66;5018157;28;20133;-74
2024/02/06 08:16:43;;;;;;;11.82;5.93;;;;;;;7.05;100.00;100495.06;5021744;28;20085;-69
2024/02/06 08:19:16;;;;;;;8.93;5.55;;;;;;;7.16;100.00;100492.94;5020370;28;20049;-74
2024/02/06 08:21:48;;;;;;;13.02;6.72;;;;;;;7.31;100.00;100494.22;5032953;28;20041;-75
2024/02/06 08:24:16;;;;;;;11.20;6.15;;;;;;;7.38;100.00;100491.34;5025355;28;20049;-73
2024/02/06 08:26:45;;;;;;;14.40;6.50;;;;;;;7.34;100.00;100491.50;5017822;28;20109;-73
2024/02/06 08:29:15;;;;;;;12.80;6.13;;;;;;;7.24;100.00;100479.53;5003894;28;20410;-70
2024/02/06 08:31:43;;;;;;;13.32;6.28;;;;;;;7.23;100.00;100481.31;4996158;28;20045;-71
2024/02/06 08:34:12;;;;;;;9.95;6.28;;;;;;;7.26;100.00;100489.09;5015522;28;20124;-72
2024/02/06 08:36:40;;;;;;;10.20;6.55;;;;;;;7.34;100.00;100476.53;4991872;28;20041;-72
2024/02/06 08:39:11;;;;;;;9.80;6.55;;;;;;;7.27;100.00;100476.78;5027602;28;20056;-71
2024/02/06 08:41:40;;;;;;;13.50;7.47;;;;;;;7.24;100.00;100477.72;4992540;28;20072;-69
2024/02/06 08:44:09;;;;;;;15.48;6.85;;;;;;;7.24;100.00;100474.28;5021625;28;20046;-71
2024/02/06 08:46:42;;;;;;;13.70;6.70;;;;;;;7.31;100.00;100479.28;5031584;28;20049;-70
2024/02/06 08:49:10;;;;;;;15.07;7.35;;;;;;;7.20;100.00;100455.06;5017964;28;20078;-69
2024/02/06 08:51:39;;;;;;;12.32;6.63;;;;;;;7.42;100.00;100476.28;5021169;28;20056;-71
2024/02/06 08:54:07;;;;;;;15.20;7.15;;;;;;;7.41;100.00;100482.47;5014704;28;20146;-70
2024/02/06 08:56:37;;;;;;;15.38;7.15;;;;;;;7.34;100.00;100475.69;5024100;28;20045;-70
2024/02/06 08:59:05;;;;;;;14.10;7.33;;;;;;;7.28;100.00;100463.56;5010462;28;20054;-72
2024/02/06 09:01:39;;;;;;;14.88;8.00;;;;;;;7.42;100.00;100476.28;4986463;28;20045;-71
2024/02/06 09:04:07;;;;;;;15.82;8.00;;;;;;;7.40;100.00;100465.78;5004641;28;20052;-71
2024/02/06 09:06:39;;;;;;;15.30;7.65;;;;;;;7.31;100.00;100458.19;5028177;28;20065;-70
2024/02/06 09:09:09;;;;;;;18.13;8.23;;;;;;;7.32;100.00;100461.69;4987949;28;20053;-70
2024/02/06 09:11:38;;;;;;;15.05;8.57;;;;;;;7.33;100.00;100469.56;5007292;28;20107;-71
2024/02/06 09:14:08;;;;;;;20.00;8.93;;;;;;;7.37;100.00;100481.72;5017367;28;20049;-71
2024/02/06 09:16:37;;;;;;;16.00;8.82;;;;;;;7.40;100.00;100473.69;5012249;28;20930;-70
2024/02/06 09:19:05;;;;;;;14.20;8.73;;;;;;;7.37;100.00;100460.66;4995914;28;20525;-72
2024/02/06 09:21:33;;;;;;;23.15;8.57;;;;;;;7.54;100.00;100469.78;5013011;28;20045;-69
2024/02/06 09:24:02;;;;;;;18.30;8.60;;;;;;;7.65;100.00;100473.75;5018467;28;20091;-70
2024/02/06 09:26:33;;;;;;;14.70;8.20;;;;;;;7.72;100.00;100464.72;5007576;28;20041;-72
2024/02/06 09:29:05;;;;;;;13.98;8.57;;;;;;;7.79;100.00;100462.75;5027973;28;20048;-72
2024/02/06 09:31:37;;;;;;;16.17;8.15;;;;;;;7.77;100.00;100467.19;5023874;28;20060;-72
2024/02/06 09:34:05;;;;;;;15.27;8.63;;;;;;;7.79;100.00;100472.44;5001266;28;20038;-71
2024/02/06 09:36:33;;;;;;;16.65;8.32;;;;;;;7.82;100.00;100465.28;5009611;28;20125;-68
2024/02/06 09:39:01;;;;;;;14.07;8.27;;;;;;;7.90;100.00;100471.13;5024883;28;20102;-73
2024/02/06 09:41:30;;;;;;;15.90;8.80;;;;;;;7.92;100.00;100458.75;5009084;28;20041;-70
2024/02/06 09:43:58;;;;;;;14.20;8.07;;;;;;;8.03;100.00;100472.41;5007776;28;20042;-71
2024/02/06 09:46:28;;;;;;;14.30;8.38;;;;;;;8.07;100.00;100471.41;5001573;28;20045;-72
2024/02/06 09:48:56;;;;;;;15.38;8.57;;;;;;;8.07;100.00;100474.03;5019197;28;20136;-71
2024/02/06 09:51:27;;;;;;;14.60;8.10;;;;;;;7.93;100.00;100472.81;5001988;28;20034;-73
2024/02/06 09:53:59;;;;;;;20.13;8.40;;;;;;;7.90;100.00;100486.09;5026831;28;20068;-70
2024/02/06 09:56:29;;;;;;;15.57;8.35;;;;;;;7.89;100.00;100466.78;4978632;28;20100;-70
2024/02/06 09:59:01;;;;;;;13.10;8.27;;;;;;;8.00;100.00;100480.47;5022207;28;20148;-70
2024/02/06 10:01:31;;;;;;;13.73;7.43;;;;;;;8.02;100.00;100461.97;5025824;28;20052;-70
2024/02/06 10:03:59;;;;;;;14.35;8.80;;;;;;;8.08;100.00;100474.91;5017207;28;20054;-76
2024/02/06 10:06:30;;;;;;;10.35;7.82;;;;;;;8.10;100.00;100471.31;5027452;28;20034;-69
2024/02/06 10:08:59;;;;;;;12.15;7.72;;;;;;;8.00;100.00;100463.78;5011203;28;20056;-72
2024/02/06 10:11:29;;;;;;;14.90;7.20;;;;;;;8.03;100.00;100472.41;5010762;28;20421;-72
2024/02/06 10:13:57;;;;;;;14.15;7.40;;;;;;;8.05;100.00;100457.41;5017064;28;20109;-73
2024/02/06 10:16:28;;;;;;;14.55;7.30;;;;;;;8.14;100.00;100479.13;5000495;28;20414;-71
2024/02/06 10:19:00;;;;;;;12.00;7.68;;;;;;;8.11;100.00;100477.44;5010459;28;20108;-71
2024/02/06 10:21:28;;;;;;;;;;;;;;;8.08;100.00;100475.75;5015415;28;20108;-69
2024/02/06 10:24:04;;;;;;;13.88;7.47;;;;;;;8.08;100.00;100473.13;5018777;28;20025;-72
2024/02/06 10:26:34;;;;;;;13.90;7.53;;;;;;;8.12;100.00;100458.06;5002260;28;20168;-72
2024/02/06 10:29:11;;;;;;;14.98;7.28;;;;;;;8.27;100.00;100477.75;5014327;28;20060;-70
2024/02/06 10:31:39;;;;;;;13.13;7.03;;;;;;;8.33;100.00;100473.16;5003695;28;20046;-70
2024/02/06 10:34:12;;;;;;;11.55;7.68;;;;;;;8.23;100.00;100455.88;5015375;28;20045;-69
2024/02/06 10:36:45;;;;;;;13.20;7.65;;;;;;;8.26;100.00;100468.13;5034870;28;20063;-71
2024/02/06 10:39:14;;;;;;;13.05;7.28;;;;;;;8.12;100.00;100454.56;5007538;28;20068;-70
2024/02/06 10:41:43;;;;;;;14.90;8.00;;;;;;;8.12;100.00;100465.97;5035801;28;20050;-70
2024/02/06 10:44:18;;;;;;;13.82;7.38;;;;;;;8.16;100.00;100467.59;5013776;28;20044;-71
2024/02/06 10:46:48;;;;;;;13.32;7.63;;;;;;;8.12;100.00;100462.47;5002961;28;20065;-75
2024/02/06 10:49:17;;;;;;;10.40;6.95;;;;;;;8.19;100.00;100470.09;4992520;28;20089;-74
2024/02/06 10:51:45;;;;;;;11.40;7.05;;;;;;;8.24;100.00;100467.31;4991330;28;20117;-74
2024/02/06 10:54:19;;;;;;;13.57;7.68;;;;;;;8.21;100.00;100467.41;4996781;28;20053;-71
2024/02/06 10:56:58;;;;;;;12.68;7.30;;;;;;;8.23;100.00;100460.31;4996102;28;20049;-71
2024/02/06 10:59:34;;;;;;;10.18;7.43;;;;;;;8.26;100.00;100445.22;5008956;28;20037;-76
2024/02/06 11:02:05;;;;;;;16.40;7.43;;;;;;;8.30;100.00;100451.25;4982124;28;20050;-71
2024/02/06 11:04:36;;;;;;;11.18;7.13;;;;;;;8.24;100.00;100447.06;5013287;28;20422;-73
2024/02/06 11:07:11;;;;;;;11.52;6.65;;;;;;;8.21;100.00;100436.63;5006101;28;20045;-71
2024/02/06 11:09:43;;;;;;;10.40;6.63;;;;;;;8.25;100.00;100435.59;5022713;28;20037;-71
2024/02/06 11:12:12;;;;;;;11.73;6.90;;;;;;;8.35;100.00;100430.84;4994254;28;20353;-73
2024/02/06 11:15:02;;;;;;;14.90;6.93;;;;;;;8.34;100.00;100418.63;4987948;28;20069;-73
2024/02/06 11:17:32;;;;;;;11.75;6.95;;;;;;;8.38;100.00;100407.00;4986948;28;20473;-74
2024/02/06 11:20:09;;;;;;;8.90;6.28;;;;;;;8.63;100.00;100405.16;5007719;28;20050;-74
2024/02/06 11:22:40;;;;;;;14.13;6.45;;;;;;;8.66;100.00;100399.75;5005935;28;20120;-72
2024/02/06 11:25:10;;;;;;;12.15;6.40;;;;;;;8.69;100.00;100398.78;5000138;28;20475;-75
2024/02/06 11:27:40;;;;;;;10.23;5.28;;;;;;;8.69;100.00;100389.06;5018699;28;20065;-71
2024/02/06 11:30:11;;;;;;;12.93;5.90;;;;;;;8.78;100.00;100383.44;5009215;28;20113;-72